Aeroporto :
LOGIN :

Iscrizione | Disclaimer

   EN    FR    IT 

 










Sommario :    VFR   VFR Marginale   IFR   IFR Intensivo   IFR Molto Intensivo
Visibilità : 
Base nubi : 
>= 8 km
>= 3000ft
5 / 8 km
1000 / 3000 ft
1500m / 5 km
500 / 1000 ft
800 / 1500m
200 / 500 ft
< 800m
< 200 ft
Simboli :   Temporali  Nebbia  Neve Forte  Precipitazioni Forti  Vento > 20 kt
SIGMETs :   Varie  Temporali  Ghiacco  Turbolenza  Onda orograficha  Ceneri Vulcaniche







- Altitudine del aeroporto : 1906 ft
- Codice IATA : INN


LOWI - Innsbruck

ULTIMO METAR :
  • 120250Z AUTO VRB01KT 9999 BKN070 M01/M05 Q1022

METARs OBSOLETI :
  • 120220Z AUTO VRB01KT 9999 OVC070 M01/M04 Q1022
  • 120150Z AUTO 23004KT 170V310 9999 OVC070 M01/M04 Q1022
  • 120120Z AUTO VRB02KT 9999 OVC070 M01/M03 Q1022
  • 120050Z AUTO VRB01KT 9999 OVC070 M01/M03 Q1022
  • 120020Z AUTO VRB01KT 9999 OVC070 M01/M03 Q1022
  • 112350Z AUTO VRB02KT 9999 FEW007 BKN070 M01/M03 Q1022

TAF TAF LOWI
Valido dal 12 a 00 ore il 13 a 00 ore UTC


112315Z 1200/1224 VRB02KT 9999 FEW010 SCT050 BKN080 TX03/1214Z TNM05/1206Z
TEMPO 1200/1208 27006KT BKN010
BECMG 1208/1210 08005KT FEW070 SCT120
Nessun NOTAM noto per questo aeroporto.



MetMap, La meteo Aeronautica in un colpo d'occhio ! - Copyright ORBIFLY Dicembre 2007 - Disclaimer

ORBIFLY MET'MAP TEAM :

Programmazione e sviluppo : Alexandra Zaïnal
Concezione e sviluppo : Baudouin d'Aumeries
Co-Programmazione e sviluppo : Marc-Olivier Méhu
Supporto tecnico e logistico : Manuel Goepfert
Aiuto per la traduzione : Arnaldo La Scala

Contatto : metmap@orbifly.com




FONTI E CREDITI :

   NOAA